createdAt,value
2016-04-30T00:00:34.647Z,50.32
2016-04-30T00:01:34.838Z,50.32
2016-04-30T00:02:34.840Z,50.32
2016-04-30T00:03:35.139Z,50.61
2016-04-30T00:04:34.674Z,50.51
2016-04-30T00:05:34.270Z,50.42
2016-04-30T00:06:34.429Z,50.42
2016-04-30T00:07:34.822Z,50.61
2016-04-30T00:08:34.465Z,50.61
2016-04-30T00:09:34.624Z,50.7
2016-04-30T00:10:34.815Z,50.61
2016-04-30T00:11:34.817Z,50.42
2016-04-30T00:12:34.820Z,50.61
2016-04-30T00:13:34.604Z,50.42
2016-04-30T00:14:34.810Z,50.51
2016-04-30T00:15:34.640Z,50.32
2016-04-30T00:16:34.800Z,50.51
2016-04-30T00:17:34.583Z,50.42
2016-04-30T00:18:34.601Z,50.51
2016-04-30T00:19:34.604Z,50.42
2016-04-30T00:20:34.389Z,50.42
2016-04-30T00:21:34.391Z,50.42
2016-04-30T00:22:34.581Z,50.61
2016-04-30T00:23:34.631Z,50.61
2016-04-30T00:24:34.617Z,50.32
2016-04-30T00:25:34.371Z,50.32
2016-04-30T00:26:34.577Z,50.42
2016-04-30T00:27:34.564Z,50.42
2016-04-30T00:28:34.566Z,50.51
2016-04-30T00:29:34.553Z,50.7
2016-04-30T00:30:34.555Z,50.42
2016-04-30T00:31:34.575Z,50.61
2016-04-30T00:32:34.405Z,50.32
2016-04-30T00:33:34.752Z,50.7
2016-04-30T00:34:34.363Z,50.23
2016-04-30T00:35:34.757Z,50.32
2016-04-30T00:36:34.354Z,50.23
2016-04-30T00:37:34.544Z,50.42
2016-04-30T00:38:34.749Z,50.51
2016-04-30T00:39:34.532Z,50.32
2016-04-30T00:40:34.535Z,50.32
2016-04-30T00:41:34.523Z,50.32
2016-04-30T00:42:34.526Z,50.32
2016-04-30T00:43:34.544Z,50.32
2016-04-30T00:44:34.718Z,50.42
2016-04-30T00:45:34.518Z,50.32
2016-04-30T00:46:34.521Z,50.8
2016-04-30T00:47:34.508Z,50.7
2016-04-30T00:48:34.354Z,50.51
2016-04-30T00:49:34.514Z,50.7
2016-04-30T00:50:34.703Z,50.42
2016-04-30T00:51:34.706Z,50.7
2016-04-30T00:52:34.709Z,50.51
2016-04-30T00:53:34.712Z,50.32
2016-04-30T00:54:34.698Z,50.23
2016-04-30T00:55:34.701Z,50.42
2016-04-30T00:56:34.485Z,50.23
2016-04-30T00:57:34.269Z,50.23
2016-04-30T00:58:34.288Z,50.23
2016-04-30T00:59:34.478Z,50.51
2016-04-30T01:00:34.683Z,50.23
2016-04-30T01:01:34.467Z,50.13
2016-04-30T01:02:34.266Z,50.32
2016-04-30T01:03:34.661Z,50.51
2016-04-30T01:04:34.460Z,50.32
2016-04-30T01:05:34.462Z,50.51
2016-04-30T01:06:34.450Z,50.32
2016-04-30T01:07:34.655Z,50.32
2016-04-30T01:08:34.455Z,50.51
2016-04-30T01:09:34.457Z,50.42
2016-04-30T01:10:34.445Z,50.51
2016-04-30T01:11:34.635Z,50.51
2016-04-30T01:12:34.247Z,50.61
2016-04-30T01:13:34.437Z,50.51
2016-04-30T01:14:34.284Z,50.42
2016-04-30T01:15:34.287Z,50.61
2016-04-30T01:16:34.429Z,50.51
2016-04-30T01:17:34.432Z,50.61
2016-04-30T01:18:34.217Z,50.32
2016-04-30T01:19:34.422Z,50.7
2016-04-30T01:20:34.628Z,50.7
2016-04-30T01:21:34.631Z,50.42
2016-04-30T01:22:34.414Z,50.61
2016-04-30T01:23:34.417Z,50.7
2016-04-30T01:24:34.608Z,50.8
2016-04-30T01:25:34.610Z,50.61
2016-04-30T01:26:34.206Z,50.78
2016-04-30T01:27:34.412Z,51.16
2016-04-30T01:28:34.602Z,51.16
2016-04-30T01:29:34.605Z,51.16
2016-04-30T01:30:34.451Z,51.16
2016-04-30T01:31:34.235Z,50.9
2016-04-30T01:32:34.192Z,50.9
2016-04-30T01:33:34.428Z,50.87
2016-04-30T01:34:34.385Z,50.58
2016-04-30T01:35:34.199Z,50.7
2016-04-30T01:36:34.171Z,50.42
2016-04-30T01:37:34.377Z,50.51
2016-04-30T01:38:34.363Z,50.51
2016-04-30T01:39:34.569Z,50.42
2016-04-30T01:40:34.369Z,50.49
2016-04-30T01:41:34.356Z,50.39
2016-04-30T01:42:34.359Z,50.51
2016-04-30T01:43:34.205Z,50.61
2016-04-30T01:44:34.349Z,50.61
2016-04-30T01:45:34.555Z,50.61
2016-04-30T01:46:34.542Z,50.32
2016-04-30T01:47:34.340Z,50.9
2016-04-30T01:48:34.343Z,50.42
2016-04-30T01:49:34.346Z,50.61
2016-04-30T01:50:34.177Z,50.42
2016-04-30T01:51:34.337Z,50.42
2016-04-30T01:52:34.354Z,50.42
2016-04-30T01:53:34.529Z,50.32
2016-04-30T01:54:34.125Z,50.32
2016-04-30T01:55:34.316Z,50.42
2016-04-30T01:56:34.115Z,50.42
2016-04-30T01:57:34.367Z,50.23
2016-04-30T01:58:34.308Z,50.13
2016-04-30T01:59:34.311Z,50.23
2016-04-30T02:00:34.298Z,50.23
2016-04-30T02:01:34.097Z,50.13
2016-04-30T02:02:34.303Z,50.23
2016-04-30T02:03:34.306Z,50.23
2016-04-30T02:04:34.294Z,50.23
2016-04-30T02:05:34.499Z,50.23
2016-04-30T02:06:34.283Z,50.42
2016-04-30T02:07:33.926Z,50.32
2016-04-30T02:08:34.069Z,50.32
2016-04-30T02:09:34.088Z,50.42
2016-04-30T02:10:34.340Z,50.32
2016-04-30T02:11:34.484Z,50.42
2016-04-30T02:12:34.487Z,50.51
2016-04-30T02:13:34.271Z,50.42
2016-04-30T02:14:34.476Z,50.51
2016-04-30T02:15:34.462Z,50.42
2016-04-30T02:16:34.465Z,50.32
2016-04-30T02:17:34.469Z,50.51
2016-04-30T02:18:36.440Z,50.61
2016-04-30T02:19:34.256Z,50.99
2016-04-30T02:20:34.461Z,50.7
2016-04-30T02:21:34.245Z,50.8
2016-04-30T02:22:34.248Z,50.49
2016-04-30T02:23:34.235Z,50.78
2016-04-30T02:24:34.440Z,50.7
2016-04-30T02:25:34.240Z,50.78
2016-04-30T02:26:34.242Z,50.68
2016-04-30T02:27:34.230Z,51.06
2016-04-30T02:28:34.436Z,50.78
2016-04-30T02:29:34.422Z,51.06
2016-04-30T02:30:34.223Z,50.96
2016-04-30T02:31:34.225Z,51.35
2016-04-30T02:32:34.009Z,50.96
2016-04-30T02:33:34.214Z,51.06
2016-04-30T02:34:34.405Z,51.06
2016-04-30T02:35:34.423Z,50.87
2016-04-30T02:36:34.410Z,50.87
2016-04-30T02:37:34.194Z,50.78
2016-04-30T02:38:34.400Z,50.96
2016-04-30T02:39:34.199Z,50.96
2016-04-30T02:40:34.030Z,51.06
2016-04-30T02:41:33.986Z,51.06
2016-04-30T02:42:34.192Z,51.06
2016-04-30T02:43:34.179Z,51.25
2016-04-30T02:44:34.229Z,50.87
2016-04-30T02:45:34.388Z,50.96
2016-04-30T02:46:34.187Z,51.16
2016-04-30T02:47:34.174Z,50.96
2016-04-30T02:48:34.176Z,50.96
2016-04-30T02:49:34.165Z,50.96
2016-04-30T02:50:34.167Z,51.06
2016-04-30T02:51:34.170Z,51.06
2016-04-30T02:52:34.203Z,51.06
2016-04-30T02:53:34.159Z,50.96
2016-04-30T02:54:34.145Z,50.49
2016-04-30T02:55:34.352Z,50.68
2016-04-30T02:56:34.340Z,50.78
2016-04-30T02:57:34.342Z,50.8
2016-04-30T02:58:34.142Z,50.99
2016-04-30T02:59:33.941Z,50.8
2016-04-30T03:00:34.130Z,50.61
2016-04-30T03:01:34.336Z,50.99
2016-04-30T03:02:34.339Z,50.8
2016-04-30T03:03:34.124Z,50.7
2016-04-30T03:04:35.408Z,50.9
2016-04-30T03:05:34.129Z,50.7
2016-04-30T03:06:34.319Z,50.8
2016-04-30T03:07:34.322Z,50.99
2016-04-30T03:08:34.325Z,50.7
2016-04-30T03:09:34.108Z,50.7
2016-04-30T03:10:34.111Z,50.7
2016-04-30T03:11:33.895Z,50.7
2016-04-30T03:12:34.101Z,50.42
2016-04-30T03:13:34.088Z,50.7
2016-04-30T03:14:34.293Z,50.61
2016-04-30T03:15:34.313Z,50.61
2016-04-30T03:16:34.080Z,50.8
2016-04-30T03:17:34.083Z,50.32
2016-04-30T03:18:33.882Z,50.42
2016-04-30T03:19:34.292Z,50.61
2016-04-30T03:20:34.075Z,50.61
2016-04-30T03:21:33.875Z,50.51
2016-04-30T03:22:34.065Z,50.61
2016-04-30T03:23:34.271Z,50.99
2016-04-30T03:24:33.867Z,50.61
2016-04-30T03:25:33.855Z,50.7
2016-04-30T03:26:34.045Z,50.42
2016-04-30T03:27:34.266Z,50.32
2016-04-30T03:28:34.050Z,50.32
2016-04-30T03:29:34.053Z,50.42
2016-04-30T03:30:34.040Z,50.23
2016-04-30T03:31:34.245Z,50.51
2016-04-30T03:32:34.094Z,50.23
2016-04-30T03:33:34.352Z,50.61
2016-04-30T03:34:34.456Z,50.61
2016-04-30T03:35:34.293Z,50.7
2016-04-30T03:36:34.505Z,50.42
2016-04-30T03:37:34.513Z,50.51
2016-04-30T03:38:34.519Z,50.7
2016-04-30T03:39:34.541Z,50.61
2016-04-30T03:40:34.358Z,50.61
2016-04-30T03:41:34.568Z,50.7
2016-04-30T03:42:34.219Z,50.7
2016-04-30T03:43:34.432Z,50.8
2016-04-30T03:44:34.581Z,50.7
2016-04-30T03:45:34.388Z,50.58
2016-04-30T03:46:34.398Z,50.7
2016-04-30T03:47:34.403Z,50.78
2016-04-30T03:48:34.596Z,50.99
2016-04-30T03:49:34.695Z,50.8
2016-04-30T03:50:34.388Z,50.8
2016-04-30T03:51:34.394Z,50.51
2016-04-30T03:52:34.398Z,50.51
2016-04-30T03:53:34.604Z,50.9
2016-04-30T03:54:34.592Z,50.7
2016-04-30T03:55:34.377Z,50.68
2016-04-30T03:56:34.380Z,50.87
2016-04-30T03:57:34.383Z,50.58
2016-04-30T03:58:34.574Z,50.87
2016-04-30T03:59:34.576Z,51.16
2016-04-30T04:00:34.377Z,50.78
2016-04-30T04:01:34.583Z,50.7
2016-04-30T04:02:34.367Z,50.8
2016-04-30T04:03:34.417Z,50.8
2016-04-30T04:04:34.576Z,50.51
2016-04-30T04:05:34.203Z,50.9
2016-04-30T04:06:34.362Z,50.87
2016-04-30T04:07:34.145Z,51.09
2016-04-30T04:08:34.352Z,50.58
2016-04-30T04:09:34.543Z,50.87
2016-04-30T04:10:34.545Z,50.87
2016-04-30T04:11:34.141Z,51.06
2016-04-30T04:12:34.347Z,50.96
2016-04-30T04:13:33.975Z,50.96
2016-04-30T04:14:34.540Z,51.16
2016-04-30T04:15:34.324Z,51.35
2016-04-30T04:16:34.326Z,51.16
2016-04-30T04:17:34.532Z,51.25
2016-04-30T04:18:34.534Z,50.87
2016-04-30T04:19:34.819Z,51.45
2016-04-30T04:20:34.509Z,50.96
2016-04-30T04:21:34.325Z,51.06
2016-04-30T04:22:34.514Z,51.16
2016-04-30T04:23:34.517Z,51.06
2016-04-30T04:24:34.504Z,51.06
2016-04-30T04:25:34.116Z,51.16
2016-04-30T04:26:34.135Z,51.06
2016-04-30T04:27:34.497Z,51.06
2016-04-30T04:28:34.297Z,50.96
2016-04-30T04:29:34.283Z,51.16
2016-04-30T04:30:34.489Z,51.16
2016-04-30T04:31:34.132Z,50.58
2016-04-30T04:32:34.479Z,50.96
2016-04-30T04:33:34.074Z,50.99
2016-04-30T04:34:34.078Z,51.06
2016-04-30T04:35:34.065Z,51.06
2016-04-30T04:36:34.271Z,50.96
2016-04-30T04:37:34.461Z,51.06
2016-04-30T04:38:34.260Z,50.8
2016-04-30T04:39:34.263Z,50.78
2016-04-30T04:40:34.094Z,50.68
2016-04-30T04:41:34.456Z,50.8
2016-04-30T04:42:34.256Z,50.61
2016-04-30T04:43:34.446Z,50.61
2016-04-30T04:44:34.448Z,50.61
2016-04-30T04:45:34.248Z,50.9
2016-04-30T04:46:34.298Z,50.61
2016-04-30T04:47:34.238Z,50.51
2016-04-30T04:48:34.225Z,50.61
2016-04-30T04:49:34.790Z,50.61
2016-04-30T04:50:34.261Z,50.61
2016-04-30T04:51:34.030Z,50.61
2016-04-30T04:52:34.219Z,50.8
2016-04-30T04:53:34.208Z,50.42
2016-04-30T04:54:34.413Z,50.8
2016-04-30T04:55:34.009Z,50.9
2016-04-30T04:56:34.215Z,50.61
2016-04-30T04:57:33.999Z,50.8
2016-04-30T04:58:34.205Z,50.8
2016-04-30T04:59:34.411Z,51.09
2016-04-30T05:00:34.398Z,50.61
2016-04-30T05:01:33.994Z,50.8
2016-04-30T05:02:34.388Z,50.8
2016-04-30T05:03:34.202Z,50.7
2016-04-30T05:04:34.393Z,50.7
2016-04-30T05:05:34.177Z,50.7
2016-04-30T05:06:34.383Z,50.9
2016-04-30T05:07:34.182Z,50.7
2016-04-30T05:08:34.185Z,50.61
2016-04-30T05:09:34.171Z,50.7
2016-04-30T05:10:34.362Z,50.61
2016-04-30T05:11:34.162Z,51.25
2016-04-30T05:12:34.368Z,51.06
2016-04-30T05:13:34.151Z,51.06
2016-04-30T05:14:34.357Z,50.96
2016-04-30T05:15:34.001Z,50.87
2016-04-30T05:16:34.144Z,50.78
2016-04-30T05:17:34.147Z,51.25
2016-04-30T05:18:34.353Z,51.06
2016-04-30T05:19:33.996Z,51.16
2016-04-30T05:20:34.139Z,51.16
2016-04-30T05:21:33.986Z,51.35
2016-04-30T05:22:34.331Z,51.25
2016-04-30T05:23:34.334Z,51.25
2016-04-30T05:24:34.119Z,51.25
2016-04-30T05:25:34.325Z,51.35
2016-04-30T05:26:34.327Z,51.25
2016-04-30T05:27:34.127Z,51.35
2016-04-30T05:28:34.114Z,51.16
2016-04-30T05:29:34.319Z,51.35
2016-04-30T05:30:33.963Z,51.45
2016-04-30T05:31:34.106Z,51.16
2016-04-30T05:32:34.296Z,51.45
2016-04-30T05:33:34.111Z,51.54
2016-04-30T05:34:34.146Z,51.25
2016-04-30T05:35:34.304Z,51.54
2016-04-30T05:36:34.136Z,51.25
2016-04-30T05:37:34.138Z,51.16
2016-04-30T05:38:34.094Z,51.16
2016-04-30T05:39:33.924Z,51.25
2016-04-30T05:40:34.287Z,51.25
2016-04-30T05:41:33.882Z,51.35
2016-04-30T05:42:34.089Z,51.16
2016-04-30T05:43:34.076Z,50.96
2016-04-30T05:44:34.266Z,51.25
2016-04-30T05:45:33.863Z,51.16
2016-04-30T05:46:33.850Z,50.87
2016-04-30T05:47:34.259Z,51.06
2016-04-30T05:48:33.902Z,51.18
2016-04-30T05:49:33.904Z,50.96
2016-04-30T05:50:34.251Z,51.09
2016-04-30T05:51:34.238Z,51.06
2016-04-30T05:52:34.037Z,50.9
2016-04-30T05:53:34.244Z,51.28
2016-04-30T05:54:34.027Z,51.16
2016-04-30T05:55:33.842Z,50.9
2016-04-30T05:56:34.033Z,50.8
2016-04-30T05:57:34.036Z,50.61
2016-04-30T05:58:33.883Z,51.09
2016-04-30T05:59:33.823Z,51.18
2016-04-30T06:00:34.027Z,50.9
2016-04-30T06:01:33.827Z,51.09
2016-04-30T06:02:34.222Z,50.9
2016-04-30T06:03:33.646Z,50.8
2016-04-30T06:04:34.008Z,50.51
2016-04-30T06:05:34.010Z,50.7
2016-04-30T06:06:34.216Z,50.99
2016-04-30T06:07:34.000Z,50.8
2016-04-30T06:08:34.205Z,50.9
2016-04-30T06:09:33.833Z,50.8
2016-04-30T06:10:33.993Z,50.61
2016-04-30T06:11:33.996Z,50.7
2016-04-30T06:12:33.982Z,50.51
2016-04-30T06:13:33.829Z,50.9
2016-04-30T06:14:34.175Z,51.06
2016-04-30T06:15:34.178Z,50.99
2016-04-30T06:16:34.181Z,50.9
2016-04-30T06:17:34.183Z,51.16
2016-04-30T06:18:33.967Z,50.87
2016-04-30T06:19:34.267Z,51.16
2016-04-30T06:20:33.957Z,50.87
2016-04-30T06:21:34.162Z,50.87
2016-04-30T06:22:34.681Z,51.16
2016-04-30T06:23:33.756Z,51.16
2016-04-30T06:24:33.961Z,51.16
2016-04-30T06:25:33.949Z,51.16
2016-04-30T06:26:33.936Z,50.87
2016-04-30T06:27:33.783Z,50.96
2016-04-30T06:28:33.738Z,51.06
2016-04-30T06:29:33.944Z,50.96
2016-04-30T06:30:33.728Z,51.25
2016-04-30T06:31:34.138Z,51.25
2016-04-30T06:32:33.921Z,51.25
2016-04-30T06:33:33.924Z,51.35
2016-04-30T06:34:34.238Z,51.25
2016-04-30T06:35:33.913Z,51.25
2016-04-30T06:36:33.916Z,51.35
2016-04-30T06:37:33.903Z,51.25
2016-04-30T06:38:34.109Z,51.25
2016-04-30T06:39:33.909Z,51.16
2016-04-30T06:40:34.115Z,51.16
2016-04-30T06:41:33.742Z,51.06
2016-04-30T06:42:33.917Z,50.96
2016-04-30T06:43:33.903Z,50.87
2016-04-30T06:44:34.109Z,51.45
2016-04-30T06:45:34.096Z,50.9
2016-04-30T06:46:34.098Z,51.09
2016-04-30T06:47:33.883Z,50.99
2016-04-30T06:48:34.089Z,51.09
2016-04-30T06:49:34.545Z,50.99
2016-04-30T06:50:33.720Z,51.09
2016-04-30T06:51:33.925Z,50.96
2016-04-30T06:52:33.880Z,50.87
2016-04-30T06:53:33.915Z,50.96
2016-04-30T06:54:33.871Z,50.78
2016-04-30T06:55:34.061Z,51.35
2016-04-30T06:56:33.860Z,51.06
2016-04-30T06:57:33.707Z,51.35
2016-04-30T06:58:33.850Z,51.25
2016-04-30T06:59:34.056Z,51.25
2016-04-30T07:00:33.650Z,51.35
2016-04-30T07:01:33.843Z,51.35
2016-04-30T07:02:33.846Z,51.25
2016-04-30T07:03:34.036Z,50.96
2016-04-30T07:04:34.304Z,50.87
2016-04-30T07:05:34.040Z,51.25
2016-04-30T07:06:34.028Z,51.16
2016-04-30T07:07:33.825Z,51.09
2016-04-30T07:08:33.827Z,50.99
2016-04-30T07:09:33.815Z,51.25
2016-04-30T07:10:34.023Z,51.09
2016-04-30T07:11:33.882Z,50.8
2016-04-30T07:12:33.807Z,51.09
2016-04-30T07:13:34.013Z,50.9
2016-04-30T07:14:33.812Z,50.9
2016-04-30T07:15:33.815Z,50.9
2016-04-30T07:16:33.849Z,50.9
2016-04-30T07:17:33.837Z,50.51
2016-04-30T07:18:33.995Z,51.09
2016-04-30T07:19:33.951Z,50.61
2016-04-30T07:20:33.781Z,50.7
2016-04-30T07:21:33.581Z,50.7
2016-04-30T07:22:33.772Z,50.7
2016-04-30T07:23:33.571Z,50.8
2016-04-30T07:24:33.777Z,50.7
2016-04-30T07:25:33.764Z,50.8
2016-04-30T07:26:33.767Z,50.8
2016-04-30T07:27:33.769Z,50.61
2016-04-30T07:28:33.975Z,50.7
2016-04-30T07:29:33.556Z,50.8
2016-04-30T07:30:33.965Z,50.8
2016-04-30T07:31:33.952Z,50.7
2016-04-30T07:32:33.799Z,50.99
2016-04-30T07:33:33.551Z,50.42
2016-04-30T07:34:33.585Z,50.61
2016-04-30T07:35:33.744Z,50.51
2016-04-30T07:36:33.575Z,50.61
2016-04-30T07:37:33.733Z,50.61
2016-04-30T07:38:33.736Z,50.51
2016-04-30T07:39:33.927Z,50.51
2016-04-30T07:40:33.726Z,50.61
2016-04-30T07:41:33.729Z,50.7
2016-04-30T07:42:33.560Z,50.61
2016-04-30T07:43:33.921Z,50.32
2016-04-30T07:44:33.924Z,50.23
2016-04-30T07:45:33.552Z,50.61
2016-04-30T07:46:33.711Z,50.99
2016-04-30T07:47:33.698Z,50.42
2016-04-30T07:48:33.904Z,50.42
2016-04-30T07:49:34.345Z,50.51
2016-04-30T07:50:33.706Z,50.51
2016-04-30T07:51:33.693Z,50.42
2016-04-30T07:52:33.336Z,50.61
2016-04-30T07:53:33.901Z,50.61
2016-04-30T07:54:33.889Z,50.51
2016-04-30T07:55:33.689Z,50.8
2016-04-30T07:56:33.675Z,50.61
2016-04-30T07:57:33.678Z,50.61
2016-04-30T07:58:33.884Z,50.61
2016-04-30T07:59:33.871Z,51.28
2016-04-30T08:00:33.670Z,51.09
2016-04-30T08:01:33.470Z,51.09
2016-04-30T08:02:33.879Z,51.09
2016-04-30T08:03:33.663Z,50.99
2016-04-30T08:04:34.306Z,51.18
2016-04-30T08:05:33.855Z,50.99
2016-04-30T08:06:33.640Z,51.18
2016-04-30T08:07:33.642Z,51.09
2016-04-30T08:08:33.849Z,51.18
2016-04-30T08:09:33.649Z,50.61
2016-04-30T08:10:33.854Z,50.61
2016-04-30T08:11:33.434Z,50.99
2016-04-30T08:12:33.843Z,51.18
2016-04-30T08:13:33.830Z,50.99
2016-04-30T08:14:33.848Z,51.09
2016-04-30T08:15:33.679Z,51.47
2016-04-30T08:16:33.823Z,51.18
2016-04-30T08:17:33.810Z,51.37
2016-04-30T08:18:33.812Z,51.37
2016-04-30T08:19:34.034Z,51.09
2016-04-30T08:20:33.615Z,51.28
2016-04-30T08:21:33.664Z,50.99
2016-04-30T08:22:33.808Z,51.18
2016-04-30T08:23:33.607Z,51.28
2016-04-30T08:24:33.814Z,50.8
2016-04-30T08:25:33.598Z,51.18
2016-04-30T08:26:33.397Z,50.9
2016-04-30T08:27:33.586Z,50.99
2016-04-30T08:28:33.793Z,51.09
2016-04-30T08:29:33.530Z,51.18
2016-04-30T08:30:33.594Z,51.09
2016-04-30T08:31:33.379Z,50.8
2016-04-30T08:32:33.788Z,50.7
2016-04-30T08:33:33.775Z,50.8
2016-04-30T08:34:33.793Z,51.09
2016-04-30T08:35:33.374Z,50.8
2016-04-30T08:36:33.360Z,50.61
2016-04-30T08:37:33.770Z,50.9
2016-04-30T08:38:33.772Z,51.02
2016-04-30T08:39:33.774Z,50.51
2016-04-30T08:40:33.559Z,50.61
2016-04-30T08:41:33.187Z,50.92
2016-04-30T08:42:33.549Z,51.02
2016-04-30T08:43:33.754Z,50.44
2016-04-30T08:44:33.554Z,50.73
2016-04-30T08:45:33.541Z,50.44
2016-04-30T08:46:33.748Z,50.44
2016-04-30T08:47:33.734Z,50.44
2016-04-30T08:48:33.534Z,50.44
2016-04-30T08:49:34.006Z,50.44
2016-04-30T08:50:33.727Z,50.25
2016-04-30T08:51:33.526Z,50.44
2016-04-30T08:52:33.732Z,50.34
2016-04-30T08:53:33.720Z,50.44
2016-04-30T08:54:33.722Z,50.73
2016-04-30T08:55:33.708Z,50.54
2016-04-30T08:56:33.508Z,50.34
2016-04-30T08:57:33.730Z,50.63
2016-04-30T08:58:33.701Z,50.44
2016-04-30T08:59:33.703Z,50.54
2016-04-30T09:00:33.706Z,50.34
2016-04-30T09:01:33.491Z,50.63
2016-04-30T09:02:33.494Z,50.54
2016-04-30T09:03:33.293Z,50.44
2016-04-30T09:04:33.889Z,50.34
2016-04-30T09:05:33.502Z,50.42
2016-04-30T09:06:33.677Z,50.63
2016-04-30T09:07:33.522Z,50.34
2016-04-30T09:08:33.478Z,50.25
2016-04-30T09:09:33.263Z,50.25
2016-04-30T09:10:33.671Z,50.23
2016-04-30T09:11:33.470Z,50.44
2016-04-30T09:12:33.098Z,50.63
2016-04-30T09:13:33.304Z,50.25
2016-04-30T09:14:33.260Z,50.34
2016-04-30T09:15:33.450Z,50.44
2016-04-30T09:16:33.656Z,50.54
2016-04-30T09:17:33.456Z,50.34
2016-04-30T09:18:33.099Z,50.25
2016-04-30T09:19:34.273Z,50.25
2016-04-30T09:20:33.651Z,50.25
2016-04-30T09:21:33.435Z,50.73
2016-04-30T09:22:33.079Z,50.34
2016-04-30T09:23:33.643Z,50.42
2016-04-30T09:24:33.428Z,50.44
2016-04-30T09:25:33.634Z,50.42
2016-04-30T09:26:33.215Z,50.54
2016-04-30T09:27:33.622Z,50.63
2016-04-30T09:28:33.406Z,50.9
2016-04-30T09:29:33.425Z,50.42
2016-04-30T09:30:33.209Z,50.34
2016-04-30T09:31:33.258Z,50.54
2016-04-30T09:32:33.417Z,50.15
2016-04-30T09:33:33.405Z,50.44
2016-04-30T09:34:34.486Z,50.44
2016-04-30T09:35:33.410Z,50.63
2016-04-30T09:36:33.398Z,50.63
2016-04-30T09:37:33.603Z,50.44
2016-04-30T09:38:33.183Z,50.44
2016-04-30T09:39:33.593Z,50.34
2016-04-30T09:40:33.393Z,50.25
2016-04-30T09:41:33.239Z,50.25
2016-04-30T09:42:33.382Z,50.63
2016-04-30T09:43:33.385Z,50.34
2016-04-30T09:44:33.231Z,50.34
2016-04-30T09:45:33.172Z,50.25
2016-04-30T09:46:33.377Z,50.54
2016-04-30T09:47:33.379Z,50.25
2016-04-30T09:48:33.368Z,50.25
2016-04-30T09:49:33.370Z,50.34
2016-04-30T09:50:33.356Z,50.34
2016-04-30T09:51:33.407Z,50.34
2016-04-30T09:52:33.346Z,50.54
2016-04-30T09:53:33.365Z,50.34
2016-04-30T09:54:33.352Z,50.44
2016-04-30T09:55:33.151Z,50.54
2016-04-30T09:56:33.545Z,50.25
2016-04-30T09:57:33.547Z,50.34
2016-04-30T09:58:33.144Z,50.34
2016-04-30T09:59:33.147Z,50.34
2016-04-30T10:00:32.978Z,50.25
2016-04-30T10:01:33.542Z,50.25
2016-04-30T10:02:33.186Z,50.15
2016-04-30T10:03:33.126Z,50.18
2016-04-30T10:04:33.536Z,50.15
2016-04-30T10:05:33.522Z,50.34
2016-04-30T10:06:33.119Z,50.46
2016-04-30T10:07:33.168Z,50.18
2016-04-30T10:08:33.311Z,50.27
2016-04-30T10:09:33.314Z,50.18
2016-04-30T10:10:33.348Z,50.18
2016-04-30T10:11:33.147Z,50.27
2016-04-30T10:12:33.510Z,50.37
2016-04-30T10:13:33.152Z,50.18
2016-04-30T10:14:33.531Z,50.08
2016-04-30T10:15:33.502Z,50.18
2016-04-30T10:16:33.286Z,50.18
2016-04-30T10:17:34.273Z,50.27
2016-04-30T10:18:33.495Z,49.99
2016-04-30T10:19:34.185Z,50.18
2016-04-30T10:20:33.078Z,50.18
2016-04-30T10:21:33.285Z,49.99
2016-04-30T10:22:33.271Z,50.08
2016-04-30T10:23:33.321Z,50.08
2016-04-30T10:24:33.480Z,49.99
2016-04-30T10:25:33.060Z,50.18
2016-04-30T10:26:33.281Z,49.99
2016-04-30T10:27:33.254Z,50.37
2016-04-30T10:28:33.459Z,50.37
2016-04-30T10:29:33.462Z,50.27
2016-04-30T10:30:33.465Z,50.18
2016-04-30T10:31:33.061Z,50.18
2016-04-30T10:32:33.454Z,49.99
2016-04-30T10:33:33.457Z,50.08
2016-04-30T10:34:33.038Z,50.08
2016-04-30T10:35:33.447Z,50.08
2016-04-30T10:36:33.230Z,49.89
2016-04-30T10:37:33.031Z,49.99
2016-04-30T10:38:33.033Z,49.89
2016-04-30T10:39:33.067Z,50.18
2016-04-30T10:40:33.242Z,50.08
2016-04-30T10:41:33.228Z,50.08
2016-04-30T10:42:33.435Z,50.08
2016-04-30T10:43:33.219Z,50.37
2016-04-30T10:44:33.080Z,50.18
2016-04-30T10:45:33.427Z,50.37
2016-04-30T10:46:33.071Z,49.99
2016-04-30T10:47:33.213Z,50.27
2016-04-30T10:48:33.013Z,50.27
2016-04-30T10:49:33.219Z,50.18
2016-04-30T10:50:33.206Z,50.18
2016-04-30T10:51:33.005Z,49.99
2016-04-30T10:52:33.398Z,50.27
2016-04-30T10:53:33.402Z,50.37
2016-04-30T10:54:32.999Z,50.08
2016-04-30T10:55:32.985Z,50.18
2016-04-30T10:56:33.394Z,50.08
2016-04-30T10:57:33.381Z,50.08
2016-04-30T10:58:32.978Z,50.18
2016-04-30T10:59:32.996Z,50.27
2016-04-30T11:00:33.233Z,50.08
2016-04-30T11:01:33.173Z,50.18
2016-04-30T11:02:32.972Z,50.18
2016-04-30T11:03:33.179Z,50.08
2016-04-30T11:04:32.978Z,50.18
2016-04-30T11:05:33.371Z,50.27
2016-04-30T11:06:32.968Z,50.18
2016-04-30T11:07:33.361Z,50.18
2016-04-30T11:08:33.175Z,50.37
2016-04-30T11:09:33.164Z,50.18
2016-04-30T11:10:33.354Z,50.18
2016-04-30T11:11:33.356Z,50.08
2016-04-30T11:12:33.155Z,50.18
2016-04-30T11:13:32.939Z,49.99
2016-04-30T11:14:32.948Z,50.18
2016-04-30T11:15:33.338Z,49.99
2016-04-30T11:16:33.579Z,50.08
2016-04-30T11:17:32.968Z,49.99
2016-04-30T11:18:33.346Z,49.89
2016-04-30T11:19:33.474Z,50.08
2016-04-30T11:20:32.914Z,49.79
2016-04-30T11:21:33.323Z,49.89
2016-04-30T11:22:33.341Z,49.89
2016-04-30T11:23:33.312Z,49.89
2016-04-30T11:24:33.112Z,49.79
2016-04-30T11:25:33.115Z,49.89
2016-04-30T11:26:32.945Z,49.79
2016-04-30T11:27:33.120Z,49.89
2016-04-30T11:28:33.326Z,49.89
2016-04-30T11:29:33.312Z,49.91
2016-04-30T11:30:33.300Z,49.79
2016-04-30T11:31:33.303Z,49.79
2016-04-30T11:32:33.289Z,49.72
2016-04-30T11:33:33.292Z,49.72
2016-04-30T11:34:33.186Z,49.69
2016-04-30T11:35:32.892Z,49.79
2016-04-30T11:36:33.286Z,50.01
2016-04-30T11:37:32.913Z,49.82
2016-04-30T11:38:33.274Z,49.6
2016-04-30T11:39:33.074Z,49.82
2016-04-30T11:40:33.077Z,49.63
2016-04-30T11:41:33.063Z,49.63
2016-04-30T11:42:33.067Z,49.53
2016-04-30T11:43:33.257Z,49.6
2016-04-30T11:44:33.057Z,49.53
2016-04-30T11:45:33.278Z,49.72
2016-04-30T11:46:32.844Z,49.53
2016-04-30T11:47:33.252Z,49.72
2016-04-30T11:48:33.067Z,49.53
2016-04-30T11:49:35.038Z,49.53
2016-04-30T11:50:33.260Z,49.53
2016-04-30T11:51:33.247Z,49.53
2016-04-30T11:52:33.249Z,49.63
2016-04-30T11:53:33.096Z,49.63
2016-04-30T11:54:33.239Z,49.53
2016-04-30T11:55:33.242Z,49.82
2016-04-30T11:56:33.042Z,49.91
2016-04-30T11:57:32.826Z,49.89
2016-04-30T11:58:33.031Z,49.91
2016-04-30T11:59:32.831Z,49.89
2016-04-30T12:00:33.021Z,49.91
2016-04-30T12:01:32.821Z,49.79
2016-04-30T12:02:33.231Z,49.72
2016-04-30T12:03:32.810Z,49.82
2016-04-30T12:04:33.547Z,49.82
2016-04-30T12:05:32.817Z,49.82
2016-04-30T12:06:33.006Z,49.82
2016-04-30T12:07:33.009Z,49.69
2016-04-30T12:08:33.231Z,49.72
2016-04-30T12:09:33.202Z,49.82
2016-04-30T12:10:33.016Z,49.82
2016-04-30T12:11:33.207Z,49.91
2016-04-30T12:12:33.007Z,50.01
2016-04-30T12:13:33.197Z,50.18
2016-04-30T12:14:33.215Z,50.08
2016-04-30T12:15:32.811Z,50.2
2016-04-30T12:16:33.002Z,49.99
2016-04-30T12:17:32.785Z,50.1
2016-04-30T12:18:32.991Z,50.3
2016-04-30T12:19:33.479Z,50.46
2016-04-30T12:20:32.966Z,50.49
2016-04-30T12:21:32.781Z,50.37
2016-04-30T12:22:32.987Z,50.46
2016-04-30T12:23:33.176Z,50.49
2016-04-30T12:24:33.179Z,50.49
2016-04-30T12:25:32.963Z,50.68
2016-04-30T12:26:33.170Z,50.3
2016-04-30T12:27:32.954Z,50.37
2016-04-30T12:28:32.815Z,50.59
2016-04-30T12:29:32.803Z,50.49
2016-04-30T12:30:33.165Z,50.68
2016-04-30T12:31:33.151Z,50.4
2016-04-30T12:32:32.794Z,50.2
2016-04-30T12:33:32.938Z,50.2
2016-04-30T12:34:32.581Z,50.3
2016-04-30T12:35:33.147Z,50.3
2016-04-30T12:36:32.946Z,50.2
2016-04-30T12:37:32.933Z,50.3
2016-04-30T12:38:32.744Z,50.2
2016-04-30T12:39:33.193Z,50.3
2016-04-30T12:40:33.034Z,50.1
2016-04-30T12:41:33.264Z,50.1
2016-04-30T12:42:33.104Z,50.01
2016-04-30T12:43:33.125Z,50.1
2016-04-30T12:44:33.158Z,50.01
2016-04-30T12:45:33.145Z,50.01
2016-04-30T12:46:33.162Z,50.2
2016-04-30T12:47:33.383Z,50.1
2016-04-30T12:48:33.194Z,50.1
2016-04-30T12:49:33.343Z,50.1
2016-04-30T12:50:33.194Z,49.91
2016-04-30T12:51:32.999Z,50.01
2016-04-30T12:52:33.195Z,50.1
2016-04-30T12:53:33.405Z,50.2
2016-04-30T12:54:33.394Z,49.91
2016-04-30T12:55:33.242Z,49.91
2016-04-30T12:56:33.247Z,49.91